Location:  
MeteoStar


Sort by weather type Sort by elevation Sort by visibility Sort from west to east north Sort from north to south Alphabetically Sort from strongest wind speed Sort from lowest to highest pressure Sort from highest to lowest dew point temperature Sort coolest temperatures to warmest Sort warm temperatures to coolest
 Metric

Current Observations for United Kingdom

Aberdaron03:00ZNot Avail.42 3318984.2WSW 39 Gusting to 50 30311
Aberdeen / Dyce03:20ZClear34 3025975.3W 8 27213
Aberporth03:00ZNot Avail.42 337986.7WSW 27 Gusting to 47 32436
Aboyne03:00ZNot Avail.33 3030975.5W 5 28459
Altnaharra03:00ZClear34 3120973.7S 7 28265
Aonach Mor03:00ZNot Avail.23 2218N Gusting to 0 233707
Aultbea03:00ZNot Avail.40 3418974.5W 9 3436
Aviemore03:00ZNot Avail.31 2925976WSW 2 31721
Baltasound03:00ZNot Avail.42 3525974.5SE 13 3549
Bedford03:00ZNot Avail.41 3630986.5SW 15 Gusting to 28 33278
Belfast / Aldergrove Airport03:00ZNot Avail.33 3211980.5SW 8 26265
Belfast / Harbour03:20ZClear32 3011981.1SSW 6 2616
Benbecula03:20ZClear41 3225975.1W 15 3319
Benson03:00ZNot Avail.42 3712989.2SW 15 Gusting to 26 34206
Bingley03:00ZSnow34 333980WSW 17 Gusting to 30 23859
Birmingham / Airport03:20ZNot Avail.37 3211986.3WSW 11 29324
Boscombe Down03:00ZNot Avail.41 3420990.5WSW 21 Gusting to 31 32406
Boulmer03:00ZNot Avail.32 3117978.5SSW 5 2775
Bournemouth Airport03:00ZNot Avail.43 3520992.2W 15 Gusting to 27 3636
Bridlington Mrsc03:00ZNot Avail.42 384979.0SW 12 3549
Bristol / Lulsgate 03:20ZMostly Cloudy39 3613989.4WSW 9 33620
Brize Norton03:00ZPartly Cloudy41 3625988.2WSW 10 Gusting to 21 35288
Cairngorm03:00ZNot Avail.22 2125W 28 Gusting to 44 54084
Camborne03:00ZPartly Cloudy45 3413993.0WSW 17 Gusting to 31 38285
Capel Curig03:00ZClear39 3125983.4WSW 22 Gusting to 41 29708
Cardiff-Wales Airport03:20ZMostly Cloudy45 3213989.2W 20 Gusting to 30 37219
Cardinham03:00ZClear42 388992.4WSW 15 Gusting to 33 34656
Carlisle03:00ZNot Avail.35 334979N 3591
Castlederg03:00ZNot Avail.32 3117980.7W 4 28167
Chivenor03:00ZShowers44 3713990.5W 25 Gusting to 39 3526
Church Lawford03:00ZClear38 3530986.2WSW 10 Gusting to 30 31351
Coningsby Royal Air Force Base03:00ZNot Avail.42 3835982.5SW 15 3422
Crosby03:00ZNot Avail.43 377981.9W 28 Gusting to 39 3326
Culdrose03:00ZNot Avail.47 3611993.4WSW 22 Gusting to 39 39255
Donna Nook03:00ZNot Avail.43 3930981.2SSW 20 Gusting to 31 3426
Dunkeswell Aerodrome03:00ZNot Avail.38 3410992.0WSW 12 30826
East Midlands03:20ZMostly Cloudy39 3420984.3WSW 20 29308
Edinburgh Airport03:20ZLight Rain36 3425977.2SW 7 30134
Eskdalemuir03:00ZNot Avail.28 277979.7W 1 28793
Fair Isle03:00ZNot Avail.39 3420973S 7 34187
Fairford Royal Air Force Base02:56ZPartly Cloudy40 3730988.7WSW 15 32285
Farnborough03:00ZNot Avail.43 3625989.9WSW 16 Gusting to 29 35213
Glasgow Airport03:20ZClear36 3425978.1N 2 3626
Glen Ogle03:00ZNot Avail.29 2930W 12 191850
Glenanne03:00ZNot Avail.34 3225980.7W 7 28528
Great Dun Fell03:00ZNot Avail.28 283WSW 18 Gusting to 25 152778
Guernsey Airport03:00ZClear47 3620996.2W 21 Gusting to 40 39334
Hawarden03:00ZNot Avail.41 3320982.4W 12 Gusting to 28 3432
Herstmonceux03:00ZLight Showers47 4012990.7W 12 Gusting to 27 42170
High Wicombe Hqstc03:00ZShowers39 373988.5W 12 Gusting to 31 32669
Holbeach03:00ZNot Avail.42 3730983.9SW 23 Gusting to 34 329
Humberside03:20ZPartly Cloudy41 3725981.2SW 18 32101
Inverbervie03:00ZNot Avail.35 3430975.5WSW 14 26439
Inverness / Dalcross03:20ZClear32 3025975.1SSW 4 2829
Isle Of Man / Ronaldsway Airport03:00ZNot Avail.40 3420980.7W 17 3155
Isle Of Portland03:00ZNot Avail.47 377992.4W 32 Gusting to 45 38173
Jersey Airport03:00ZClear48 407997W 22 Gusting to 38 41275
Kenley03:00ZClear41 3730990WSW 13 Gusting to 32 34557
Kinloss03:00ZNot Avail.35 3135974.7SW 7 2922
Kirkwall Airport03:00ZNot Avail.37 3325972.7WSW 9 3068
Lake Vyrnwy03:00ZNot Avail.36 3125984.4SW 19 Gusting to 27 261181
Lakenheath Royal Air Force Base02:56ZMostly Cloudy44 347985.5WSW 20 Gusting to 28 3632
Langdon Bay03:00ZNot Avail.45 4230990.0WSW 19 Gusting to 27 37383
Larkhill03:00ZNot Avail.40 3335990.2WSW 16 Gusting to 33 32433
Leeds And Bradford03:20ZMostly Cloudy36 3425979.5SW 18 Gusting to 30 26682
Leeming03:00ZLight Rain and Snow34 322979S 6 29131
Lerwick03:00ZLight Showers42 3718973.5SSE 10 36269
Leuchars03:00ZNot Avail.35 3330976.5WSW 9 2839
Linton-On-Ouse03:00ZNot Avail.38 366979.0WSW 11 3152
Liscombe03:00ZNot Avail.38 3612990.5WSW 13 Gusting to 25 301141
Little Rissington03:00ZNot Avail.38 3612987.7WSW 16 Gusting to 27 29705
Liverpool Airport 03:20ZClear43 3613983.2WSW 15 3685
Loch Glascanoch03:00ZClear31 2925975.2W 4 27869
Loftus Samos03:00ZLight Rain35 344978.9SW 4 32190
London / Gatwick Airport03:20ZNot Avail.43 367991.2WSW 13 36203
London / Heathrow Airport03:00ZClear43 3925989.5WSW 17 Gusting to 25 3578
London City Airport03:20ZMostly Cloudy45 397989.1WSW 13 3916
Luton Airport 03:20ZMostly Cloudy41 3713987.4WSW 17 33524
Lydd Airport 03:20ZClear48 4125991.1WSW 25 409
Lyneham03:00ZNot Avail.39 3513989.2WSW 11 Gusting to 26 32475
Manchester Airport03:20ZMostly Cloudy41 3411983.2SW 10 35226
Manston03:00ZNot Avail.45 4130989.5WSW 19 Gusting to 32 37180
Marham03:00ZShowers42 407984.9WSW 10 3675
Middle Wallop03:00ZNot Avail.42 3425990.7WSW 16 Gusting to 25 34298
Mildenhall Royal Air Force Base02:57ZMostly Cloudy45 3430985.2WSW 21 Gusting to 28 3732
Milford Haven03:00ZNot Avail.44 3619987.7W 24 Gusting to 48 35144
Mumbles03:00ZNot Avail.44 3819989.2W 22 Gusting to 32 35114
Northolt03:00ZNot Avail.43 3820989.2WSW 16 Gusting to 25 35124
Norwich Weather Centre03:20ZMostly Cloudy43 3917985.1SW 13 3645
Nottingham Weather Centre03:00ZLight Showers39 3612983.4WSW 16 Gusting to 33 30383
Odiham03:00ZNot Avail.42 3620990.2WSW 21 Gusting to 32 33403
Pembrey Sands03:00ZNot Avail.43 356989.0W 31 Gusting to 44 329
Plymouth03:00ZClear45 3711993.2WSW 22 Gusting to 35 37164
Portglenone03:00ZNot Avail.31 2913979.7SSE 5 26209
Prestwick Rnas03:00ZNot Avail.41 3425978.0WSW 14 3385
Redesdale03:00ZNot Avail.33 3220979.2NNE 2 33692
Rhyl03:00ZNot Avail.39 3325982.7WSW 11 32252
Saint Catherines Point03:00ZNot Avail.47 377992W 33 Gusting to 45 3852
Scatsa / Shetland Island03:20ZMostly Cloudy39 3625974.2SSE 7 3472
Scilly; Saint MaryS03:00ZClear45 4017993.2SW 30 Gusting to 53 35101
Sennybridge03:00ZNot Avail.35 3215987.9SW 13 261007
Shap03:00ZNot Avail.34 320.62979.5SW 6 29816
Shawbury03:00ZClear37 3417984.4SSW 17 Gusting to 32 27249
Shobdon03:00ZNot Avail.37 3325987WSW 14 Gusting to 25 28324
Shoeburyness03:00ZNot Avail.45 4025988.9WSW 13 396
South Uist Range03:00ZNot Avail.40 3435975.7WSW 14 3232
Spadeadam03:00ZMist32 322.25979W 6 26935
Stansted Airport03:20ZLight Rain41 3917988.3SW 13 34347
Stornoway03:00ZShowers nearby35 3345973.5SW 11 2729
Strathallan03:00ZNot Avail.35 3430977WSW 7 29114
Sumburgh Cape 03:20ZMostly Cloudy43 3725973.1S 9 3816
Thorney Island03:00ZClear45 3720991.7W 21 Gusting to 34 3713
Tiree03:00ZLight Rain35 3315977.4SW 4 3239
Trawscoed03:00ZNot Avail.43 3215986.5W 13 Gusting to 24 36206
Tulloch Bridge03:00ZClear34 3230977.0WSW 3 34777
Valley03:00ZNot Avail.42 358983.0WSW 25 Gusting to 35 323
Waddington03:00ZNot Avail.42 3725982.4SW 15 34223
Wainfleet03:00ZNot Avail.43 4045982.5SW 19 Gusting to 25 359
Warcop Range03:00ZShowers35 343979.2WNW 4 32744
Wattisham03:00ZNot Avail.42 3830986.7WSW 16 Gusting to 25 34285
Wick03:00ZNot Avail.31 2925973.5SW 8 24127
Wittering03:00ZClear41 3630984.4WSW 19 Gusting to 32 32275
Yeovilton03:00ZNot Avail.42 3513991.4WSW 10 3675

Atlantic
Tropical Watch